createdAt,value
2023-10-20T00:01:35.487Z,7.95
2023-10-20T00:06:40.949Z,7.40
2023-10-20T00:11:46.417Z,7.25
2023-10-20T00:16:50.239Z,7.50
2023-10-20T00:21:56.433Z,7.70
2023-10-20T00:27:00.265Z,6.22
2023-10-20T00:32:05.932Z,7.25
2023-10-20T00:37:12.201Z,9.85
2023-10-20T00:42:18.703Z,8.18
2023-10-20T00:47:23.010Z,7.63
2023-10-20T00:52:31.549Z,6.70
2023-10-20T00:57:35.925Z,5.90
2023-10-20T01:02:41.051Z,7.32
2023-10-20T01:07:46.350Z,7.85
2023-10-20T01:12:51.055Z,9.43
2023-10-20T01:17:55.980Z,9.73
2023-10-20T01:23:02.706Z,10.60
2023-10-20T01:28:09.339Z,9.20
2023-10-20T01:33:13.314Z,9.48
2023-10-20T01:38:20.576Z,9.80
2023-10-20T01:43:26.249Z,9.35
2023-10-20T01:48:31.818Z,9.60
2023-10-20T01:53:35.891Z,13.43
2023-10-20T01:58:41.379Z,11.68
2023-10-20T02:03:48.469Z,10.05
2023-10-20T02:08:52.531Z,13.73
2023-10-20T02:13:58.484Z,11.50
2023-10-20T02:19:02.677Z,9.68
2023-10-20T02:24:09.014Z,8.77
2023-10-20T02:29:14.368Z,10.35
2023-10-20T02:34:19.196Z,7.35
2023-10-20T02:39:24.620Z,21.65
2023-10-20T02:44:31.603Z,13.25
2023-10-20T02:49:36.630Z,11.70
2023-10-20T02:54:40.555Z,8.10
2023-10-20T02:59:47.819Z,10.07
2023-10-20T03:04:55.596Z,7.93
2023-10-20T03:09:59.884Z,8.48
2023-10-20T03:15:05.858Z,9.20
2023-10-20T03:20:10.750Z,9.82
2023-10-20T03:25:14.740Z,10.77
2023-10-20T03:30:20.777Z,13.68
2023-10-20T03:35:26.049Z,12.82
2023-10-20T03:40:37.652Z,12.15
2023-10-20T03:45:50.007Z,7.32
2023-10-20T03:50:55.070Z,7.03
2023-10-20T03:56:00.895Z,6.68
2023-10-20T04:01:08.072Z,7.03
2023-10-20T04:06:12.930Z,5.75
2023-10-20T04:11:20.328Z,8.88
2023-10-20T04:16:29.030Z,6.17
2023-10-20T04:21:34.033Z,6.27
2023-10-20T04:26:38.924Z,6.07
2023-10-20T04:32:02.490Z,6.80
2023-10-20T04:37:23.591Z,5.90
2023-10-20T04:43:01.293Z,8.02
2023-10-20T04:48:24.376Z,12.40
2023-10-20T04:53:45.128Z,26.98
2023-10-20T04:58:55.830Z,21.05
2023-10-20T05:04:12.195Z,18.85
2023-10-20T05:09:16.383Z,12.57
2023-10-20T05:14:20.447Z,17.73
2023-10-20T05:19:26.732Z,15.02
2023-10-20T05:24:30.637Z,17.15
2023-10-20T05:29:34.849Z,32.45
2023-10-20T05:34:42.798Z,42.30
2023-10-20T05:39:47.094Z,46.83
2023-10-20T05:45:02.489Z,36.25
2023-10-20T05:50:11.420Z,36.72
2023-10-20T05:55:15.546Z,81.45
2023-10-20T06:00:20.500Z,23.67
2023-10-20T06:05:26.052Z,18.50
2023-10-20T06:10:31.059Z,15.75
2023-10-20T06:15:35.292Z,15.55
2023-10-20T06:20:42.446Z,18.90
2023-10-20T06:25:46.382Z,17.30
2023-10-20T06:30:51.937Z,14.52
2023-10-20T06:36:01.786Z,13.73
2023-10-20T06:41:06.245Z,11.18
2023-10-20T06:46:11.005Z,9.15
2023-10-20T06:51:16.754Z,11.65
2023-10-20T06:56:26.795Z,9.95
2023-10-20T07:01:33.718Z,7.80
2023-10-20T07:06:39.096Z,7.55
2023-10-20T07:11:45.440Z,7.90
2023-10-20T07:16:49.590Z,6.22
2023-10-20T07:21:55.310Z,6.35
2023-10-20T07:27:00.387Z,6.78
2023-10-20T07:32:04.783Z,5.53
2023-10-20T07:37:11.948Z,5.88
2023-10-20T07:42:21.176Z,4.38
2023-10-20T07:52:31.213Z,4.40
2023-10-20T07:57:36.582Z,4.35
2023-10-20T08:02:47.201Z,4.18
2023-10-20T08:07:52.580Z,6.40
2023-10-20T08:12:56.605Z,4.80
2023-10-20T08:18:00.845Z,6.63
2023-10-20T08:23:07.742Z,8.20
2023-10-20T08:28:11.849Z,4.45
2023-10-20T08:33:16.011Z,4.90
2023-10-20T08:38:21.829Z,5.03
2023-10-20T08:43:27.433Z,3.58
2023-10-20T08:48:33.104Z,4.32
2023-10-20T08:53:41.011Z,4.05
2023-10-20T08:58:47.906Z,4.73
2023-10-20T09:03:53.509Z,4.30
2023-10-20T09:09:00.579Z,4.38
2023-10-20T09:14:04.765Z,4.28
2023-10-20T09:19:12.219Z,4.35
2023-10-20T09:24:18.712Z,5.10
2023-10-20T09:29:24.028Z,4.85
2023-10-20T09:34:28.729Z,4.43
2023-10-20T09:39:41.497Z,4.32
2023-10-20T09:44:49.414Z,5.25
2023-10-20T09:49:55.612Z,5.18
2023-10-20T09:55:03.111Z,4.38
2023-10-20T10:00:09.684Z,4.93
2023-10-20T10:05:23.707Z,4.25
2023-10-20T10:10:29.109Z,4.28
2023-10-20T10:15:40.232Z,4.97
2023-10-20T10:20:47.097Z,4.30
2023-10-20T10:25:54.933Z,5.68
2023-10-20T10:30:58.797Z,4.27
2023-10-20T10:36:11.448Z,6.40
2023-10-20T10:41:24.337Z,10.30
2023-10-20T10:46:36.055Z,6.90
2023-10-20T10:51:45.295Z,5.90
2023-10-20T10:56:50.952Z,5.63
2023-10-20T11:01:55.745Z,3.97
2023-10-20T11:07:01.160Z,4.10
2023-10-20T11:12:10.471Z,4.22
2023-10-20T11:17:16.140Z,3.67
2023-10-20T11:22:21.644Z,3.20
2023-10-20T11:27:28.032Z,3.70
2023-10-20T11:32:32.333Z,3.28
2023-10-20T11:37:36.699Z,3.70
2023-10-20T11:42:43.071Z,3.20
2023-10-20T11:47:47.404Z,3.65
2023-10-20T11:52:51.929Z,4.45
2023-10-20T11:57:57.150Z,3.50
2023-10-20T12:03:01.345Z,3.22
2023-10-20T12:08:06.775Z,4.32
2023-10-20T12:13:13.625Z,3.58
2023-10-20T12:18:17.867Z,3.65
2023-10-20T12:23:22.131Z,3.00
2023-10-20T12:28:28.672Z,3.67
2023-10-20T12:33:33.516Z,3.03
2023-10-20T12:38:38.232Z,3.58
2023-10-20T12:43:44.113Z,4.25
2023-10-20T12:48:48.515Z,3.47
2023-10-20T12:53:52.778Z,3.75
2023-10-20T12:58:59.359Z,2.92
2023-10-20T13:04:03.643Z,3.33
2023-10-20T13:09:09.256Z,3.17
2023-10-20T13:14:16.272Z,3.47
2023-10-20T13:19:23.282Z,3.50
2023-10-20T13:24:27.167Z,3.60
2023-10-20T13:29:34.663Z,3.97
2023-10-20T13:34:38.854Z,3.78
2023-10-20T13:39:43.544Z,3.47
2023-10-20T13:44:49.474Z,2.97
2023-10-20T13:49:53.654Z,3.60
2023-10-20T13:54:57.564Z,3.60
2023-10-20T14:00:02.943Z,3.30
2023-10-20T14:05:13.711Z,2.88
2023-10-20T14:10:18.456Z,4.63
2023-10-20T14:15:24.579Z,3.88
2023-10-20T14:20:32.597Z,4.50
2023-10-20T14:30:42.029Z,3.95
2023-10-20T14:35:46.061Z,4.85
2023-10-20T14:40:50.197Z,4.38
2023-10-20T14:45:59.328Z,9.20
2023-10-20T14:51:07.646Z,7.53
2023-10-20T14:56:17.746Z,6.88
2023-10-20T15:01:23.114Z,11.88
2023-10-20T15:06:27.862Z,10.88
2023-10-20T15:11:31.975Z,8.98
2023-10-20T15:16:37.379Z,14.02
2023-10-20T15:21:41.516Z,14.85
2023-10-20T15:26:47.096Z,16.48
2023-10-20T15:31:54.220Z,15.65
2023-10-20T15:37:00.682Z,11.75
2023-10-20T15:42:05.062Z,6.72
2023-10-20T15:47:10.699Z,12.27
2023-10-20T15:52:14.830Z,10.98
2023-10-20T15:57:19.794Z,10.55
2023-10-20T16:02:25.843Z,15.82
2023-10-20T16:07:30.429Z,24.35
2023-10-20T16:12:34.977Z,18.65
2023-10-20T16:17:41.016Z,12.48
2023-10-20T16:22:46.848Z,17.02
2023-10-20T16:27:51.017Z,11.63
2023-10-20T16:32:56.473Z,16.33
2023-10-20T16:38:00.602Z,18.40
2023-10-20T16:43:05.886Z,18.63
2023-10-20T16:48:11.954Z,14.48
2023-10-20T16:53:19.815Z,9.63
2023-10-20T16:58:23.822Z,19.42
2023-10-20T17:03:29.462Z,10.45
2023-10-20T17:08:33.942Z,8.43
2023-10-20T17:13:37.946Z,10.00
2023-10-20T17:18:43.362Z,9.98
2023-10-20T17:23:49.352Z,12.57
2023-10-20T17:28:53.323Z,13.82
2023-10-20T17:33:59.026Z,14.40
2023-10-20T17:39:03.662Z,17.58
2023-10-20T17:44:09.734Z,13.55
2023-10-20T17:49:15.534Z,19.05
2023-10-20T17:54:19.740Z,16.10
2023-10-20T17:59:23.988Z,14.77
2023-10-20T18:04:31.678Z,11.02
2023-10-20T18:09:35.814Z,11.68
2023-10-20T18:14:40.493Z,30.13
2023-10-20T18:19:45.745Z,26.67
2023-10-20T18:24:53.063Z,13.68
2023-10-20T18:29:58.298Z,12.68
2023-10-20T18:35:06.681Z,17.88
2023-10-20T18:40:11.329Z,18.17
2023-10-20T18:45:15.433Z,12.18
2023-10-20T18:50:23.449Z,11.63
2023-10-20T18:55:28.528Z,37.00
2023-10-20T19:00:32.858Z,24.35
2023-10-20T19:05:39.702Z,17.67
2023-10-20T19:10:43.790Z,9.57
2023-10-20T19:15:48.219Z,9.63
2023-10-20T19:20:59.429Z,9.88
2023-10-20T19:26:09.091Z,7.22
2023-10-20T19:31:13.507Z,10.20
2023-10-20T19:36:18.823Z,9.80
2023-10-20T19:41:23.089Z,10.60
2023-10-20T19:46:26.994Z,8.70
2023-10-20T19:51:32.285Z,12.55
2023-10-20T19:56:37.662Z,11.98
2023-10-20T20:01:42.840Z,19.65
2023-10-20T20:06:48.288Z,12.48
2023-10-20T20:11:52.340Z,9.02
2023-10-20T20:16:57.238Z,7.15
2023-10-20T20:22:02.646Z,10.60
2023-10-20T20:27:06.774Z,11.15
2023-10-20T20:32:10.891Z,14.00
2023-10-20T20:37:16.163Z,19.95
2023-10-20T20:42:20.176Z,13.80
2023-10-20T20:47:24.147Z,11.57
2023-10-20T20:52:29.412Z,10.90
2023-10-20T20:57:34.856Z,12.85
2023-10-20T21:02:40.484Z,25.75
2023-10-20T21:07:46.715Z,15.02
2023-10-20T21:12:50.618Z,7.88
2023-10-20T21:17:55.093Z,6.07
2023-10-20T21:23:00.880Z,5.68
2023-10-20T21:28:05.435Z,12.85
2023-10-20T21:33:09.570Z,10.15
2023-10-20T21:38:15.020Z,5.80
2023-10-20T21:43:19.035Z,5.72
2023-10-20T21:48:23.005Z,6.55
2023-10-20T21:53:34.917Z,10.98
2023-10-20T21:58:40.164Z,10.57
2023-10-20T22:03:46.215Z,12.23
2023-10-20T22:08:52.849Z,10.20
2023-10-20T22:13:56.815Z,8.23
2023-10-20T22:19:00.667Z,7.22
2023-10-20T22:24:07.285Z,6.47
2023-10-20T22:29:12.322Z,5.75
2023-10-20T22:34:16.338Z,6.68
2023-10-20T22:39:24.021Z,5.88
2023-10-20T22:44:27.939Z,6.28
2023-10-20T22:49:32.030Z,8.30
2023-10-20T22:54:39.309Z,8.27
2023-10-20T22:59:43.285Z,15.02
2023-10-20T23:04:47.589Z,10.63
2023-10-20T23:09:53.122Z,12.30
2023-10-20T23:14:57.155Z,11.05
2023-10-20T23:20:01.103Z,13.43
2023-10-20T23:25:07.315Z,15.20
2023-10-20T23:30:13.091Z,13.10
2023-10-20T23:35:17.251Z,11.82
2023-10-20T23:40:23.102Z,8.07
2023-10-20T23:45:27.163Z,7.28
2023-10-20T23:50:31.044Z,6.35
2023-10-20T23:55:36.562Z,6.00
